Time;durP1;ratioP1;P1;durP2;ratioP2;P2;SDS_P1;SDS_P2;PMS_P1;PMS_P2;Temp;Humidity;BMP_temperature;BMP_pressure;BME280_temperature;BME280_humidity;BME280_pressure;Samples;Min_cycle;Max_cycle;Signal;HPM_P1;HPM_P2
2023/08/22 00:02:23;;;;;;;8.30;1.65;;;;;;;27.49;46.41;101755.75;5026164;27;97223;-65
2023/08/22 00:04:49;;;;;;;2.97;1.40;;;;;;;27.29;46.69;101754.81;5030666;27;99251;-66
2023/08/22 00:07:16;;;;;;;6.03;1.65;;;;;;;27.17;46.99;101765.94;5025250;27;101641;-66
2023/08/22 00:09:43;;;;;;;5.13;1.70;;;;;;;26.80;48.31;101765.56;5024234;27;97176;-65
2023/08/22 00:12:10;;;;;;;5.85;1.90;;;;;;;27.02;47.78;101770.84;5030945;27;97034;-68
2023/08/22 00:14:36;;;;;;;3.92;1.67;;;;;;;27.23;47.31;101773.50;5025780;27;100801;-66
2023/08/22 00:17:03;;;;;;;4.95;1.48;;;;;;;27.09;47.45;101763.91;5026641;27;99170;-65
2023/08/22 00:19:30;;;;;;;5.45;2.08;;;;;;;27.07;47.72;101759.59;5029309;27;97629;-66
2023/08/22 00:21:56;;;;;;;4.65;1.50;;;;;;;26.86;48.53;101754.19;5024877;27;97394;-66
2023/08/22 00:24:24;;;;;;;9.18;2.20;;;;;;;27.18;47.40;101760.34;5030951;27;98839;-66
2023/08/22 00:26:52;;;;;;;6.68;1.63;;;;;;;26.98;47.93;101760.44;5026001;27;99053;-65
2023/08/22 00:29:18;;;;;;;5.45;1.75;;;;;;;27.08;47.71;101748.59;5025741;27;98911;-63
2023/08/22 00:31:45;;;;;;;6.45;1.63;;;;;;;27.01;47.86;101746.56;5023539;27;96790;-64
2023/08/22 00:34:11;;;;;;;6.18;2.00;;;;;;;27.02;48.01;101743.72;5022150;27;97762;-64
2023/08/22 00:36:37;;;;;;;7.05;2.10;;;;;;;27.01;47.71;101747.44;5025116;27;98993;-64
2023/08/22 00:39:04;;;;;;;5.18;2.03;;;;;;;27.09;47.67;101747.63;5024992;27;96999;-64
2023/08/22 00:41:30;;;;;;;5.38;1.60;;;;;;;27.04;47.87;101749.03;5027797;27;97011;-64
2023/08/22 00:43:58;;;;;;;4.75;1.63;;;;;;;26.65;48.61;101742.53;5024218;27;98250;-64
2023/08/22 00:46:26;;;;;;;8.25;1.67;;;;;;;26.86;48.05;101732.47;5024352;27;99318;-64
2023/08/22 00:48:52;;;;;;;7.68;1.50;;;;;;;26.78;48.69;101735.03;5025012;27;97869;-64
2023/08/22 00:51:19;;;;;;;7.50;1.52;;;;;;;26.92;47.85;101734.69;5026228;27;96785;-64
2023/08/22 00:53:46;;;;;;;8.27;1.80;;;;;;;26.96;47.73;101737.00;5028088;27;99064;-64
2023/08/22 00:56:12;;;;;;;7.20;1.67;;;;;;;26.83;48.09;101732.78;5029396;27;99195;-64
2023/08/22 00:58:39;;;;;;;5.85;1.88;;;;;;;26.88;47.92;101734.06;5027206;27;96758;-65
2023/08/22 01:01:08;;;;;;;5.88;1.52;;;;;;;26.80;48.01;101731.19;5026710;27;97185;-65
2023/08/22 01:03:35;;;;;;;7.00;1.58;;;;;;;26.48;48.67;101723.16;5028733;27;99141;-65
2023/08/22 01:06:09;;;;;;;6.90;1.80;;;;;;;26.58;48.54;101729.47;5026158;27;98846;-65
2023/08/22 01:08:39;;;;;;;5.82;1.60;;;;;;;26.72;48.13;101725.56;5029248;27;96857;-65
2023/08/22 01:11:10;;;;;;;6.55;1.95;;;;;;;26.71;48.26;101720.31;5029641;27;98378;-65
2023/08/22 01:13:39;;;;;;;5.22;2.08;;;;;;;26.70;48.07;101730.28;5027833;27;100279;-65
2023/08/22 01:16:07;;;;;;;7.45;1.80;;;;;;;26.68;48.16;101725.97;5029465;27;98757;-64
2023/08/22 01:18:34;;;;;;;6.88;1.92;;;;;;;26.78;47.89;101726.91;5023571;27;96961;-64
2023/08/22 01:21:05;;;;;;;4.32;1.40;;;;;;;26.75;47.97;101736.16;5024030;27;96854;-64
2023/08/22 01:23:32;;;;;;;12.98;2.72;;;;;;;26.88;47.84;101725.06;5028470;27;99250;-64
2023/08/22 01:26:01;;;;;;;6.15;1.88;;;;;;;26.73;48.01;101726.41;5026098;27;98140;-65
2023/08/22 01:28:34;;;;;;;6.93;2.10;;;;;;;26.76;48.01;101718.91;5025603;27;97630;-65
2023/08/22 01:31:08;;;;;;;10.48;2.10;;;;;;;26.79;47.89;101712.31;5026087;27;96877;-65
2023/08/22 01:33:38;;;;;;;9.82;2.45;;;;;;;26.82;47.54;101715.63;5027319;27;97802;-65
2023/08/22 01:36:07;;;;;;;8.15;1.83;;;;;;;26.65;48.03;101710.00;5028732;27;99093;-65
2023/08/22 01:38:36;;;;;;;6.90;1.48;;;;;;;26.67;47.68;101718.84;5024828;27;96808;-66
2023/08/22 01:41:07;;;;;;;8.82;1.90;;;;;;;26.69;48.25;101722.28;5025996;27;96887;-65
2023/08/22 01:43:34;;;;;;;6.93;1.90;;;;;;;26.67;48.24;101724.25;5028292;27;98189;-65
2023/08/22 01:46:01;;;;;;;3.85;1.50;;;;;;;26.53;48.73;101729.03;5026023;27;98973;-65
2023/08/22 01:48:27;;;;;;;6.00;1.73;;;;;;;26.56;48.48;101722.50;5022800;27;98462;-65
2023/08/22 01:50:53;;;;;;;4.22;1.48;;;;;;;26.44;48.14;101729.84;5026047;27;96844;-65
2023/08/22 01:53:20;;;;;;;7.68;1.58;;;;;;;26.16;48.79;101725.06;5030431;27;99099;-65
2023/08/22 01:55:47;;;;;;;4.75;1.33;;;;;;;26.26;48.70;101722.44;5026504;27;98880;-65
2023/08/22 01:58:14;;;;;;;7.07;1.63;;;;;;;26.37;48.46;101727.81;5027083;27;97213;-66
2023/08/22 02:00:40;;;;;;;7.38;1.73;;;;;;;26.41;48.39;101726.53;5028439;27;97281;-65
2023/08/22 02:03:07;;;;;;;6.05;1.75;;;;;;;26.33;48.58;101705.50;5030530;27;98863;-66
2023/08/22 02:05:34;;;;;;;8.15;1.95;;;;;;;26.16;49.18;101708.81;5026917;27;98084;-66
2023/08/22 02:08:01;;;;;;;8.90;2.03;;;;;;;26.07;49.22;101710.44;5024384;27;96999;-66
2023/08/22 02:10:27;;;;;;;4.47;1.42;;;;;;;26.05;49.37;101711.56;5026861;27;96746;-65
2023/08/22 02:12:55;;;;;;;5.13;1.67;;;;;;;26.00;49.77;101700.25;5027291;27;99183;-66
2023/08/22 02:15:21;;;;;;;3.90;1.30;;;;;;;26.07;50.00;101698.75;5024420;27;98921;-64
2023/08/22 02:17:49;;;;;;;8.07;1.85;;;;;;;26.11;49.78;101705.63;5022022;27;96864;-64
2023/08/22 02:20:15;;;;;;;7.05;1.75;;;;;;;26.38;48.99;101714.13;5028999;27;97024;-64
2023/08/22 02:22:42;;;;;;;7.38;1.90;;;;;;;26.38;48.57;101714.13;5027263;27;98939;-64
2023/08/22 02:25:09;;;;;;;10.00;1.80;;;;;;;26.30;48.97;101710.34;5028562;27;96955;-64
2023/08/22 02:27:36;;;;;;;10.55;2.03;;;;;;;26.19;49.55;101705.81;5027520;27;97010;-64
2023/08/22 02:30:05;;;;;;;6.65;1.65;;;;;;;26.28;49.22;101696.94;5032940;27;96988;-64
2023/08/22 02:32:32;;;;;;;8.32;1.80;;;;;;;26.27;49.32;101686.22;5028263;27;99153;-64
2023/08/22 02:34:58;;;;;;;7.28;1.98;;;;;;;26.02;49.63;101687.47;5026604;27;101018;-64
2023/08/22 02:37:25;;;;;;;5.80;1.60;;;;;;;26.05;49.73;101690.78;5027996;27;96779;-65
2023/08/22 02:39:51;;;;;;;4.95;1.70;;;;;;;25.62;50.89;101696.25;5026149;27;96947;-65
2023/08/22 02:42:18;;;;;;;6.30;1.67;;;;;;;25.92;50.20;101694.66;5025488;27;98852;-65
2023/08/22 02:44:44;;;;;;;4.03;1.50;;;;;;;26.10;49.68;101687.66;5026996;27;99497;-65
2023/08/22 02:47:12;;;;;;;4.32;1.33;;;;;;;26.25;49.30;101680.97;5026215;27;96740;-65
2023/08/22 02:49:38;;;;;;;6.78;1.52;;;;;;;26.41;49.01;101683.19;5028045;27;97265;-65
2023/08/22 02:52:06;;;;;;;10.20;2.08;;;;;;;26.31;49.10;101682.28;5025340;27;98936;-65
2023/08/22 02:54:32;;;;;;;4.25;1.50;;;;;;;26.12;49.52;101689.22;5023901;27;99313;-65
2023/08/22 02:56:58;;;;;;;8.85;1.42;;;;;;;26.20;49.42;101678.59;5028399;27;98106;-65
2023/08/22 02:59:25;;;;;;;3.58;1.30;;;;;;;26.23;49.29;101679.34;5030645;27;96777;-65
2023/08/22 03:01:51;;;;;;;7.85;1.58;;;;;;;26.23;49.30;101680.19;5023084;27;99062;-64
2023/08/22 03:04:19;;;;;;;8.93;1.88;;;;;;;26.11;49.09;101686.69;5023274;27;98048;-64
2023/08/22 03:06:45;;;;;;;7.03;1.83;;;;;;;26.12;49.33;101696.53;5031683;27;96854;-65
2023/08/22 03:09:12;;;;;;;4.65;1.90;;;;;;;26.12;49.29;101685.69;5029593;27;97741;-65
2023/08/22 03:11:38;;;;;;;5.60;1.55;;;;;;;26.24;49.19;101681.94;5029134;27;98311;-65
2023/08/22 03:14:04;;;;;;;4.15;1.55;;;;;;;26.06;49.54;101669.94;5030941;27;99062;-65
2023/08/22 03:16:31;;;;;;;8.57;1.77;;;;;;;26.13;49.19;101677.41;5032685;27;96818;-65
2023/08/22 03:18:58;;;;;;;3.70;1.67;;;;;;;26.12;49.74;101677.56;5032154;27;96808;-65
2023/08/22 03:21:26;;;;;;;6.55;1.67;;;;;;;26.27;48.57;101676.25;5025600;27;99380;-64
2023/08/22 03:23:52;;;;;;;5.75;1.65;;;;;;;26.27;48.34;101668.13;5029617;27;98960;-64
2023/08/22 03:26:18;;;;;;;6.68;1.80;;;;;;;26.15;48.79;101675.44;5027694;27;97204;-65
2023/08/22 03:28:45;;;;;;;4.88;2.30;;;;;;;26.34;48.27;101669.31;5030295;27;98519;-65
2023/08/22 03:31:11;;;;;;;4.75;1.60;;;;;;;26.13;48.84;101666.56;5027241;27;101932;-64
2023/08/22 03:33:37;;;;;;;4.15;1.40;;;;;;;26.01;48.97;101673.06;5029945;27;99183;-64
2023/08/22 03:36:04;;;;;;;3.33;1.40;;;;;;;26.14;48.94;101679.13;5029755;27;96775;-64
2023/08/22 03:38:32;;;;;;;6.15;1.77;;;;;;;25.95;48.99;101673.56;5028241;27;97691;-65
2023/08/22 03:40:58;;;;;;;5.78;1.92;;;;;;;25.98;49.00;101667.91;5027731;27;98931;-65
2023/08/22 03:43:25;;;;;;;3.88;1.45;;;;;;;26.14;48.75;101673.72;5026942;27;98943;-64
2023/08/22 03:45:51;;;;;;;5.93;1.63;;;;;;;26.16;48.32;101682.56;5025920;27;98395;-64
2023/08/22 03:48:17;;;;;;;4.47;1.40;;;;;;;26.25;47.86;101678.25;5023957;27;96988;-64
2023/08/22 03:50:44;;;;;;;5.85;1.88;;;;;;;26.24;48.25;101671.13;5028713;27;99259;-64
2023/08/22 03:53:12;;;;;;;4.78;1.50;;;;;;;26.18;48.30;101663.50;5023383;27;99146;-65
2023/08/22 03:55:40;;;;;;;7.10;1.55;;;;;;;26.00;48.82;101665.91;5023087;27;98395;-65
2023/08/22 03:58:06;;;;;;;10.60;1.88;;;;;;;26.01;48.45;101674.91;5023162;27;97111;-65
2023/08/22 04:00:33;;;;;;;4.68;1.50;;;;;;;25.85;49.18;101656.41;5022850;27;99950;-65
2023/08/22 04:03:00;;;;;;;7.85;1.63;;;;;;;25.90;48.99;101642.47;5025260;27;99244;-65
2023/08/22 04:05:27;;;;;;;6.82;1.63;;;;;;;25.98;48.23;101651.66;5026739;27;97248;-65
2023/08/22 04:07:53;;;;;;;8.00;1.80;;;;;;;25.92;48.24;101651.34;5029499;27;97380;-65
2023/08/22 04:10:20;;;;;;;6.15;1.60;;;;;;;26.13;47.51;101647.63;5030514;27;99149;-64
2023/08/22 04:12:48;;;;;;;10.40;1.70;;;;;;;26.34;46.63;101642.22;5024964;27;98780;-64
2023/08/22 04:15:16;;;;;;;4.55;1.52;;;;;;;26.01;47.49;101648.69;5024977;27;97238;-67
2023/08/22 04:17:42;;;;;;;7.65;1.40;;;;;;;25.98;47.59;101645.38;5025092;27;96889;-66
2023/08/22 04:20:10;;;;;;;5.18;1.65;;;;;;;26.08;47.79;101647.16;5026600;27;99153;-65
2023/08/22 04:22:36;;;;;;;6.35;1.70;;;;;;;26.29;47.13;101641.75;5024121;27;98803;-66
2023/08/22 04:25:04;;;;;;;11.15;2.38;;;;;;;26.24;47.00;101641.31;5024588;27;97277;-66
2023/08/22 04:27:30;;;;;;;4.45;1.83;;;;;;;26.30;46.76;101626.38;5026110;27;97627;-65
2023/08/22 04:29:58;;;;;;;7.20;1.55;;;;;;;26.36;46.17;101625.81;5022058;27;98469;-65
2023/08/22 04:32:25;;;;;;;6.88;1.90;;;;;;;26.52;45.84;101637.88;5027230;27;101630;-64
2023/08/22 04:34:51;;;;;;;2.80;1.23;;;;;;;26.54;45.32;101641.31;5028365;27;96987;-64
2023/08/22 04:37:18;;;;;;;5.75;1.48;;;;;;;26.37;45.65;101641.09;5029374;27;98410;-65
2023/08/22 04:39:44;;;;;;;9.82;1.65;;;;;;;26.45;45.97;101633.16;5026657;27;99178;-64
2023/08/22 04:42:11;;;;;;;4.75;1.52;;;;;;;26.28;46.69;101636.47;5027348;27;99357;-65
2023/08/22 04:44:38;;;;;;;6.50;1.20;;;;;;;26.15;46.58;101633.94;5028858;27;96769;-65
2023/08/22 04:47:05;;;;;;;10.13;1.63;;;;;;;26.51;46.03;101635.31;5025194;27;97303;-65
2023/08/22 04:49:32;;;;;;;10.07;2.10;;;;;;;26.46;46.20;101629.44;5023062;27;98927;-65
2023/08/22 04:51:58;;;;;;;11.93;1.73;;;;;;;26.35;46.08;101627.69;5026898;27;101721;-67
2023/08/22 04:54:25;;;;;;;18.50;1.98;;;;;;;26.37;45.71;101622.13;5027014;27;97379;-66
2023/08/22 04:56:51;;;;;;;11.77;1.60;;;;;;;26.43;45.28;101621.59;5029908;27;96829;-67
2023/08/22 04:59:17;;;;;;;9.30;1.48;;;;;;;26.44;45.12;101635.00;5024933;27;99428;-66
2023/08/22 05:01:44;;;;;;;8.63;2.13;;;;;;;26.52;44.60;101624.31;5025267;27;99008;-66
2023/08/22 05:04:11;;;;;;;8.63;2.38;;;;;;;26.35;44.95;101622.25;5026556;27;96820;-67
2023/08/22 05:06:38;;;;;;;9.93;2.05;;;;;;;26.29;44.97;101609.25;5029427;27;96817;-66
2023/08/22 05:09:04;;;;;;;7.75;2.17;;;;;;;26.45;44.70;101604.19;5029293;27;99315;-66
2023/08/22 05:11:31;;;;;;;10.88;1.73;;;;;;;26.64;44.19;101607.97;5029697;27;99027;-65
2023/08/22 05:13:57;;;;;;;7.85;1.67;;;;;;;26.55;43.89;101606.94;5027564;27;96957;-66
2023/08/22 05:16:23;;;;;;;13.00;2.25;;;;;;;26.57;43.89;101608.53;5029292;27;97480;-66
2023/08/22 05:18:50;;;;;;;8.75;1.67;;;;;;;26.52;43.90;101597.22;5019018;27;98957;-66
2023/08/22 05:21:17;;;;;;;10.68;1.80;;;;;;;26.30;44.31;101583.03;5029277;27;97521;-66
2023/08/22 05:23:44;;;;;;;16.65;1.98;;;;;;;26.39;44.50;101585.75;5029113;27;97521;-66
2023/08/22 05:26:10;;;;;;;6.22;1.80;;;;;;;26.64;43.65;101597.13;5032139;27;96958;-65
2023/08/22 05:28:36;;;;;;;6.97;1.48;;;;;;;26.63;44.13;101590.84;5026454;27;96991;-65
2023/08/22 05:31:03;;;;;;;5.65;1.55;;;;;;;26.82;43.47;101601.75;5031498;27;97509;-65
2023/08/22 05:33:29;;;;;;;15.45;2.20;;;;;;;26.76;43.76;101599.59;5027587;27;96878;-66
2023/08/22 05:35:56;;;;;;;12.20;1.95;;;;;;;26.65;44.20;101591.56;5027969;27;97341;-65
2023/08/22 05:38:24;;;;;;;4.07;1.23;;;;;;;26.83;43.65;101594.47;5028262;27;99128;-65
2023/08/22 05:40:50;;;;;;;8.63;1.45;;;;;;;26.92;43.59;101596.38;5029571;27;98260;-65
2023/08/22 05:43:17;;;;;;;14.95;2.70;;;;;;;26.89;44.11;101599.38;5031724;27;96891;-65
2023/08/22 05:45:43;;;;;;;5.05;1.42;;;;;;;26.95;43.73;101598.81;5028527;27;97035;-65
2023/08/22 05:48:09;;;;;;;8.65;2.03;;;;;;;26.86;43.81;101595.03;5028215;27;100606;-65
2023/08/22 05:50:36;;;;;;;9.77;1.38;;;;;;;26.89;43.95;101596.66;5029779;27;97866;-65
2023/08/22 05:53:02;;;;;;;6.80;1.40;;;;;;;26.90;44.16;101606.53;5028574;27;96821;-66
2023/08/22 05:55:31;;;;;;;3.85;1.27;;;;;;;27.00;43.80;101603.81;5028826;27;97103;-65
2023/08/22 05:57:57;;;;;;;8.52;1.60;;;;;;;27.00;43.77;101610.09;5030702;27;99262;-66
2023/08/22 06:00:24;;;;;;;11.50;1.67;;;;;;;27.12;43.73;101606.25;5029143;27;99026;-66
2023/08/22 06:02:50;;;;;;;5.43;1.70;;;;;;;27.08;43.71;101603.97;5025932;27;97092;-65
2023/08/22 06:05:17;;;;;;;6.82;1.90;;;;;;;26.88;44.12;101603.06;5030532;27;97742;-65
2023/08/22 06:07:43;;;;;;;6.82;1.90;;;;;;;26.62;44.82;101608.09;5022967;27;98912;-65
2023/08/22 06:10:10;;;;;;;8.20;1.77;;;;;;;26.92;44.63;101609.94;5031409;27;97879;-65
2023/08/22 06:12:37;;;;;;;9.20;1.67;;;;;;;26.79;44.64;101610.16;5031728;27;97602;-65
2023/08/22 06:15:05;;;;;;;6.85;2.10;;;;;;;26.68;44.43;101606.69;5027223;27;96947;-66
2023/08/22 06:17:32;;;;;;;4.70;1.60;;;;;;;26.91;44.05;101613.66;5024581;27;98962;-67
2023/08/22 06:19:58;;;;;;;7.38;1.90;;;;;;;27.01;44.00;101614.53;5021488;27;101198;-65
2023/08/22 06:22:24;;;;;;;20.98;10.57;;;;;;;27.46;43.15;101611.28;5020041;27;96906;-66
2023/08/22 06:24:51;;;;;;;9.77;2.20;;;;;;;27.41;43.31;101594.59;5022156;27;98746;-66
2023/08/22 06:27:17;;;;;;;8.90;2.00;;;;;;;27.61;42.46;101593.63;5024062;27;98958;-67
2023/08/22 06:29:45;;;;;;;4.22;1.30;;;;;;;27.76;41.82;101594.88;5026331;27;98757;-66
2023/08/22 06:32:11;;;;;;;6.25;1.60;;;;;;;27.69;41.86;101604.63;5030629;27;96907;-65
2023/08/22 06:34:38;;;;;;;3.90;1.20;;;;;;;27.63;42.09;101608.78;5027638;27;97029;-66
2023/08/22 06:37:06;;;;;;;5.97;1.27;;;;;;;27.43;41.92;101601.59;5028066;27;98875;-67
2023/08/22 06:39:32;;;;;;;8.18;1.20;;;;;;;27.26;42.31;101591.44;5026077;27;100309;-65
2023/08/22 06:41:59;;;;;;;6.43;1.70;;;;;;;27.15;42.39;101588.84;5024902;27;97574;-65
2023/08/22 06:44:25;;;;;;;6.00;1.40;;;;;;;27.41;42.50;101600.88;5024456;27;99293;-67
2023/08/22 06:46:54;;;;;;;5.40;1.55;;;;;;;27.33;42.67;101589.88;5027658;27;99214;-66
2023/08/22 06:49:20;;;;;;;8.93;1.20;;;;;;;28.18;40.92;101589.09;5027462;27;98797;-66
2023/08/22 06:51:46;;;;;;;5.45;1.50;;;;;;;28.61;39.65;101593.94;5034152;27;96854;-66
2023/08/22 06:54:13;;;;;;;8.32;1.30;;;;;;;28.85;38.47;101599.69;5025813;27;97114;-66
2023/08/22 06:56:39;;;;;;;4.78;1.27;;;;;;;28.53;39.08;101603.69;5026722;27;99021;-66
2023/08/22 06:59:06;;;;;;;6.07;1.73;;;;;;;28.52;39.06;101601.97;5027356;27;99569;-65
2023/08/22 07:01:32;;;;;;;6.72;1.83;;;;;;;28.89;38.48;101591.06;5021794;27;97590;-66
2023/08/22 07:04:00;;;;;;;6.20;1.70;;;;;;;28.81;37.89;101588.28;5030429;27;97634;-66
2023/08/22 07:06:26;;;;;;;6.38;1.40;;;;;;;28.75;38.39;101577.16;5024888;27;100093;-66
2023/08/22 07:08:53;;;;;;;3.13;1.17;;;;;;;28.61;38.57;101575.75;5028037;27;98859;-67
2023/08/22 07:11:19;;;;;;;6.25;1.48;;;;;;;28.72;38.71;101580.97;5022604;27;97277;-67
2023/08/22 07:13:45;;;;;;;9.18;1.65;;;;;;;28.76;38.70;101590.56;5026268;27;99316;-67
2023/08/22 07:16:12;;;;;;;7.38;1.88;;;;;;;29.19;37.81;101592.59;5025503;27;101470;-65
2023/08/22 07:18:38;;;;;;;4.85;1.52;;;;;;;29.26;37.91;101581.94;5030231;27;98976;-66
2023/08/22 07:21:07;;;;;;;9.70;1.70;;;;;;;29.45;37.27;101595.44;5025501;27;98989;-66
2023/08/22 07:23:34;;;;;;;4.47;1.38;;;;;;;29.38;37.39;101597.06;5023888;27;96870;-66
2023/08/22 07:26:00;;;;;;;7.85;1.48;;;;;;;29.30;36.62;101597.78;5026231;27;99328;-66
2023/08/22 07:28:26;;;;;;;12.63;2.28;;;;;;;29.09;37.14;101597.22;5027349;27;98807;-66
2023/08/22 07:30:53;;;;;;;8.63;1.40;;;;;;;28.83;37.25;101580.78;5023374;27;98090;-66
2023/08/22 07:33:20;;;;;;;9.73;1.80;;;;;;;28.69;37.33;101583.13;5021663;27;96974;-65
2023/08/22 07:35:47;;;;;;;51.38;8.18;;;;;;;28.54;37.83;101591.81;5021318;27;99164;-66
2023/08/22 07:38:14;;;;;;;15.40;2.22;;;;;;;28.52;37.84;101579.38;5017727;27;98772;-67
2023/08/22 07:40:42;;;;;;;6.82;1.80;;;;;;;28.42;38.44;101563.09;5021105;27;96852;-65
2023/08/22 07:43:08;;;;;;;3.42;1.42;;;;;;;28.12;38.81;101555.19;5029219;27;97366;-67
2023/08/22 07:45:35;;;;;;;4.85;1.38;;;;;;;28.27;38.78;101563.75;5023828;27;99585;-66
2023/08/22 07:48:01;;;;;;;7.20;1.27;;;;;;;28.37;38.59;101559.13;5021105;27;100253;-65
2023/08/22 07:50:31;;;;;;;8.70;1.55;;;;;;;28.07;39.30;101550.22;5024694;27;97177;-68
2023/08/22 07:52:58;;;;;;;6.60;1.40;;;;;;;28.22;39.28;101547.03;5016176;27;97856;-66
2023/08/22 07:55:26;;;;;;;5.88;1.75;;;;;;;28.51;39.10;101553.19;5020547;27;98821;-65
2023/08/22 07:57:53;;;;;;;3.75;1.50;;;;;;;28.82;38.51;101557.31;5028074;27;98797;-66
2023/08/22 08:00:19;;;;;;;5.40;1.40;;;;;;;29.26;37.57;101552.00;5026437;27;96792;-67
2023/08/22 08:02:46;;;;;;;5.13;1.20;;;;;;;29.22;36.34;101553.31;5020905;27;96866;-65
2023/08/22 08:05:13;;;;;;;7.20;1.30;;;;;;;29.30;36.23;101569.72;5027493;27;99332;-65
2023/08/22 08:07:39;;;;;;;4.30;0.98;;;;;;;29.54;35.80;101569.09;5024863;27;99164;-66
2023/08/22 08:10:07;;;;;;;7.75;1.50;;;;;;;29.43;35.98;101574.81;5026561;27;97443;-65
2023/08/22 08:12:35;;;;;;;5.63;1.10;;;;;;;29.09;36.30;101569.16;5023815;27;98788;-65
2023/08/22 08:15:01;;;;;;;7.53;1.23;;;;;;;29.37;36.43;101576.28;5022101;27;99587;-65
2023/08/22 08:17:27;;;;;;;4.70;1.58;;;;;;;29.27;36.68;101567.31;5026956;27;100964;-65
2023/08/22 08:19:54;;;;;;;5.68;1.40;;;;;;;29.41;37.23;101572.22;5024173;27;97130;-65
2023/08/22 08:22:20;;;;;;;4.30;1.20;;;;;;;29.41;37.34;101569.50;5024600;27;97030;-66
2023/08/22 08:24:47;;;;;;;10.18;2.17;;;;;;;29.61;37.34;101573.75;5023077;27;99261;-65
2023/08/22 08:27:13;;;;;;;7.53;1.75;;;;;;;29.85;36.66;101578.56;5020234;27;98711;-66
2023/08/22 08:29:41;;;;;;;9.27;2.08;;;;;;;29.75;37.06;101568.75;5020851;27;97198;-66
2023/08/22 08:32:08;;;;;;;9.32;1.85;;;;;;;30.01;36.75;101564.22;5023543;27;97064;-66
2023/08/22 08:34:34;;;;;;;6.40;1.70;;;;;;;29.80;36.70;101547.38;5022420;27;99045;-66
2023/08/22 08:37:01;;;;;;;9.02;1.58;;;;;;;29.83;36.82;101555.22;5024319;27;97726;-66
2023/08/22 08:39:28;;;;;;;7.72;2.47;;;;;;;30.43;35.85;101556.94;5026958;27;97222;-66
2023/08/22 08:42:04;;;;;;;10.40;1.83;;;;;;;30.73;34.91;101555.53;5020766;27;101312;-66
2023/08/22 08:44:33;;;;;;;11.70;1.58;;;;;;;30.72;34.67;101551.09;5020552;27;99496;-66
2023/08/22 08:47:02;;;;;;;9.75;1.90;;;;;;;30.72;34.79;101539.38;5023636;27;98568;-66
2023/08/22 08:49:32;;;;;;;10.57;1.85;;;;;;;30.54;35.01;101552.25;5016283;27;96809;-66
2023/08/22 08:52:03;;;;;;;6.15;1.90;;;;;;;30.21;35.34;101545.75;5026261;27;97416;-66
2023/08/22 08:54:29;;;;;;;6.55;2.50;;;;;;;30.16;36.45;101535.34;5021336;27;99139;-66
2023/08/22 08:56:56;;;;;;;4.45;1.90;;;;;;;30.05;36.58;101535.63;5023064;27;102686;-66
2023/08/22 08:59:23;;;;;;;10.52;1.85;;;;;;;29.97;36.72;101550.06;5022239;27;96901;-66
2023/08/22 09:01:51;;;;;;;8.77;1.83;;;;;;;29.75;37.27;101539.66;5020641;27;97597;-66
2023/08/22 09:04:18;;;;;;;9.48;2.05;;;;;;;30.14;36.46;101529.19;5022598;27;101293;-66
2023/08/22 09:06:46;;;;;;;4.10;1.50;;;;;;;30.41;36.16;101528.97;5019923;27;100578;-65
2023/08/22 09:09:14;;;;;;;6.65;1.92;;;;;;;30.85;34.73;101523.38;5024172;27;98964;-66
2023/08/22 09:11:42;;;;;;;13.73;2.13;;;;;;;30.80;35.33;101531.19;5023363;27;99194;-66
2023/08/22 09:14:10;;;;;;;11.93;2.70;;;;;;;31.18;35.25;101516.94;5022477;27;99304;-66
2023/08/22 09:16:36;;;;;;;6.30;1.70;;;;;;;31.17;34.76;101528.91;5020982;27;98820;-66
2023/08/22 09:19:03;;;;;;;10.27;1.42;;;;;;;31.17;34.55;101523.44;5019732;27;97835;-66
2023/08/22 09:21:32;;;;;;;6.55;1.50;;;;;;;31.68;34.10;101513.22;5020478;27;97404;-66
2023/08/22 09:24:07;;;;;;;10.38;1.85;;;;;;;31.83;34.08;101513.34;5024166;27;99591;-66
2023/08/22 09:26:33;;;;;;;7.18;1.67;;;;;;;32.36;33.06;101510.78;5021023;27;99382;-66
2023/08/22 09:29:04;;;;;;;17.25;2.05;;;;;;;32.39;32.59;101515.06;5018402;27;97391;-67
2023/08/22 09:31:32;;;;;;;7.57;1.90;;;;;;;32.37;32.29;101506.19;5022931;27;96976;-66
2023/08/22 09:33:59;;;;;;;12.68;1.70;;;;;;;32.28;32.58;101507.25;5021982;27;98993;-66
2023/08/22 09:36:26;;;;;;;11.95;1.60;;;;;;;32.33;32.49;101510.31;5018715;27;102081;-66
2023/08/22 09:38:55;;;;;;;4.55;1.70;;;;;;;32.39;32.46;101509.59;5023875;27;98060;-66
2023/08/22 09:41:23;;;;;;;21.38;2.97;;;;;;;32.32;32.56;101503.97;5021892;27;96798;-66
2023/08/22 09:43:53;;;;;;;8.73;1.80;;;;;;;32.35;32.10;101491.84;5016711;27;101537;-66
2023/08/22 09:46:20;;;;;;;7.00;1.75;;;;;;;32.38;32.34;101499.69;5011852;27;101153;-66
2023/08/22 09:48:49;;;;;;;12.43;1.88;;;;;;;32.30;31.96;101506.03;5019520;27;97754;-67
2023/08/22 09:51:19;;;;;;;7.28;1.58;;;;;;;31.96;32.38;101502.72;5017588;27;96847;-66
2023/08/22 09:53:47;;;;;;;6.55;1.30;;;;;;;31.71;33.03;101498.31;5020312;27;101516;-66
2023/08/22 09:56:15;;;;;;;5.68;1.80;;;;;;;32.05;33.29;101494.31;5023254;27;99820;-66
2023/08/22 09:58:43;;;;;;;7.50;1.80;;;;;;;31.56;33.55;101493.56;5023964;27;96952;-66
2023/08/22 10:01:11;;;;;;;9.50;2.15;;;;;;;32.01;32.86;101486.66;5026456;27;97204;-67
2023/08/22 10:03:38;;;;;;;5.13;1.95;;;;;;;32.04;33.10;101489.88;5026378;27;99702;-66
2023/08/22 10:06:05;;;;;;;12.00;2.00;;;;;;;31.94;32.95;101488.38;5025102;27;99338;-67
2023/08/22 10:08:31;;;;;;;6.65;2.00;;;;;;;31.87;32.66;101482.75;5027941;27;97181;-66
2023/08/22 10:10:58;;;;;;;7.15;2.70;;;;;;;32.08;33.30;101484.06;5028593;27;96819;-66
2023/08/22 10:13:27;;;;;;;6.85;3.03;;;;;;;32.20;33.15;101483.53;5031607;27;99192;-67
2023/08/22 10:15:53;;;;;;;7.80;3.10;;;;;;;31.97;32.80;101488.88;5028508;27;99683;-67
2023/08/22 10:18:24;;;;;;;4.75;1.88;;;;;;;32.29;32.22;101487.94;5028924;27;97705;-66
2023/08/22 10:20:50;;;;;;;7.32;2.03;;;;;;;32.18;31.98;101491.03;5020295;27;97319;-67
2023/08/22 10:23:17;;;;;;;7.65;1.75;;;;;;;32.45;31.86;101487.84;5020873;27;99924;-67
2023/08/22 10:25:48;;;;;;;8.48;2.50;;;;;;;32.22;32.43;101486.09;5021490;27;98923;-67
2023/08/22 10:28:15;;;;;;;7.68;2.22;;;;;;;32.59;31.40;101486.22;5028167;27;97340;-66
2023/08/22 10:31:05;;;;;;;6.85;1.95;;;;;;;32.55;31.38;101484.91;5026229;27;97504;-66
2023/08/22 10:33:32;;;;;;;8.30;1.98;;;;;;;32.43;31.96;101483.56;5023512;27;98936;-66
2023/08/22 10:36:09;;;;;;;5.78;1.90;;;;;;;32.57;30.48;101481.97;5028292;27;102001;-67
2023/08/22 10:38:51;;;;;;;6.88;1.90;;;;;;;32.76;30.43;101492.47;5020227;27;97698;-67
2023/08/22 10:41:17;;;;;;;8.07;1.88;;;;;;;32.91;30.31;101492.56;5025715;27;97015;-67
2023/08/22 10:43:44;;;;;;;7.80;1.88;;;;;;;33.05;30.78;101500.84;5023452;27;98996;-67
2023/08/22 10:46:12;;;;;;;8.38;2.20;;;;;;;33.12;30.77;101490.00;5019625;27;97636;-66
2023/08/22 10:48:39;;;;;;;4.15;1.48;;;;;;;33.25;30.45;101492.16;5025835;27;97634;-67
2023/08/22 10:51:06;;;;;;;6.13;2.58;;;;;;;33.44;30.66;101495.22;5024757;27;97315;-68
2023/08/22 10:53:42;;;;;;;10.57;2.55;;;;;;;33.52;31.26;101497.91;5024180;27;98264;-67
2023/08/22 10:56:20;;;;;;;7.07;2.97;;;;;;;33.35;31.05;101490.84;5022885;27;99086;-66
2023/08/22 10:58:58;;;;;;;10.70;3.30;;;;;;;33.00;30.99;101499.69;5027909;27;97005;-66
2023/08/22 11:01:27;;;;;;;3.70;2.20;;;;;;;33.29;31.30;101502.53;5025879;27;96875;-67
2023/08/22 11:03:55;;;;;;;9.48;2.72;;;;;;;33.33;32.13;101492.94;5019656;27;98634;-67
2023/08/22 11:06:23;;;;;;;9.32;3.70;;;;;;;33.19;32.17;101496.50;5012770;27;99328;-67
2023/08/22 11:08:51;;;;;;;9.63;2.55;;;;;;;32.88;32.48;101495.66;5017721;27;99476;-66
2023/08/22 11:11:19;;;;;;;53.17;8.80;;;;;;;32.96;32.25;101482.75;5018695;27;97580;-67
2023/08/22 11:13:46;;;;;;;17.10;4.70;;;;;;;32.78;32.98;101490.41;5022131;27;97367;-65
2023/08/22 11:16:14;;;;;;;13.60;3.25;;;;;;;32.75;32.63;101490.81;5024496;27;98833;-65
2023/08/22 11:18:42;;;;;;;14.27;3.10;;;;;;;32.55;32.86;101503.19;5024041;27;99005;-65
2023/08/22 11:21:10;;;;;;;9.88;1.75;;;;;;;32.23;33.51;101490.53;5025615;27;97176;-64
2023/08/22 11:23:38;;;;;;;6.90;1.55;;;;;;;32.31;33.99;101493.22;5026266;27;99356;-66
2023/08/22 11:26:07;;;;;;;6.97;1.70;;;;;;;32.34;33.36;101496.47;5020280;27;102150;-66